createdAt,value
2018-01-17T00:00:58.222Z,972.29
2018-01-17T00:01:58.204Z,972.32
2018-01-17T00:02:58.209Z,972.33
2018-01-17T00:03:58.207Z,972.32
2018-01-17T00:04:58.193Z,972.3
2018-01-17T00:05:58.192Z,972.28
2018-01-17T00:06:58.179Z,972.26
2018-01-17T00:07:58.176Z,972.3
2018-01-17T00:08:58.169Z,972.26
2018-01-17T00:09:58.157Z,972.2
2018-01-17T00:10:58.153Z,972.22
2018-01-17T00:11:58.146Z,972.19
2018-01-17T00:12:58.286Z,972.16
2018-01-17T00:13:58.122Z,972.12
2018-01-17T00:14:58.114Z,972.17
2018-01-17T00:15:58.104Z,972.17
2018-01-17T00:16:58.103Z,972.17
2018-01-17T00:17:58.087Z,972.18
2018-01-17T00:18:58.080Z,972.16
2018-01-17T00:19:58.079Z,972.04
2018-01-17T00:20:58.065Z,972.03
2018-01-17T00:21:58.060Z,972.06
2018-01-17T00:22:58.058Z,972
2018-01-17T00:23:58.058Z,971.99
2018-01-17T00:24:58.037Z,972.04
2018-01-17T00:25:58.030Z,972.01
2018-01-17T00:26:58.021Z,971.99
2018-01-17T00:27:58.015Z,971.96
2018-01-17T00:28:58.008Z,972
2018-01-17T00:29:58.001Z,972.03
2018-01-17T00:30:57.998Z,971.97
2018-01-17T00:31:57.993Z,971.96
2018-01-17T00:32:57.979Z,971.88
2018-01-17T00:33:57.972Z,971.89
2018-01-17T00:34:57.962Z,971.83
2018-01-17T00:35:57.957Z,971.78
2018-01-17T00:36:57.950Z,971.76
2018-01-17T00:37:57.940Z,971.78
2018-01-17T00:38:57.935Z,971.75
2018-01-17T00:39:57.927Z,971.79
2018-01-17T00:40:57.919Z,971.76
2018-01-17T00:41:57.912Z,971.83
2018-01-17T00:42:57.904Z,971.79
2018-01-17T00:43:57.899Z,971.77
2018-01-17T00:44:57.894Z,971.75
2018-01-17T00:45:57.883Z,971.79
2018-01-17T00:46:57.877Z,971.87
2018-01-17T00:47:57.870Z,971.82
2018-01-17T00:48:57.863Z,971.86
2018-01-17T00:49:57.856Z,971.87
2018-01-17T00:50:57.845Z,971.83
2018-01-17T00:51:57.839Z,971.78
2018-01-17T00:52:57.830Z,971.74
2018-01-17T00:53:57.822Z,971.75
2018-01-17T00:54:57.817Z,971.71
2018-01-17T00:55:57.809Z,971.68
2018-01-17T00:56:57.802Z,971.63
2018-01-17T00:57:57.793Z,971.59
2018-01-17T00:58:57.787Z,971.6
2018-01-17T00:59:57.779Z,971.6
2018-01-17T01:00:57.772Z,971.61
2018-01-17T01:01:57.802Z,971.53
2018-01-17T01:02:57.756Z,971.54
2018-01-17T01:03:57.750Z,971.58
2018-01-17T01:04:57.742Z,971.6
2018-01-17T01:05:57.736Z,971.58
2018-01-17T01:06:57.727Z,971.62
2018-01-17T01:07:57.720Z,971.64
2018-01-17T01:08:57.716Z,971.67
2018-01-17T01:09:57.705Z,971.73
2018-01-17T01:10:57.698Z,971.74
2018-01-17T01:11:57.691Z,971.69
2018-01-17T01:12:57.683Z,971.68
2018-01-17T01:13:57.681Z,971.7
2018-01-17T01:14:57.671Z,971.7
2018-01-17T01:15:57.661Z,971.68
2018-01-17T01:16:57.653Z,971.69
2018-01-17T01:17:57.649Z,971.65
2018-01-17T01:18:57.638Z,971.67
2018-01-17T01:19:57.631Z,971.64
2018-01-17T01:20:57.623Z,971.65
2018-01-17T01:21:57.615Z,971.69
2018-01-17T01:22:57.617Z,971.73
2018-01-17T01:23:57.600Z,971.76
2018-01-17T01:24:57.595Z,971.82
2018-01-17T01:25:57.584Z,971.85
2018-01-17T01:26:57.582Z,971.84
2018-01-17T01:27:57.575Z,971.85
2018-01-17T01:28:57.563Z,971.92
2018-01-17T01:29:57.568Z,971.94
2018-01-17T01:30:57.559Z,971.95
2018-01-17T01:31:57.558Z,972.05
2018-01-17T01:32:57.544Z,972.05
2018-01-17T01:33:57.536Z,972
2018-01-17T01:34:57.532Z,971.97
2018-01-17T01:35:57.523Z,971.85
2018-01-17T01:36:57.524Z,971.84
2018-01-17T01:37:57.507Z,971.77
2018-01-17T01:38:57.503Z,971.73
2018-01-17T01:39:57.479Z,971.81
2018-01-17T01:40:57.472Z,971.81
2018-01-17T01:41:57.477Z,971.87
2018-01-17T01:42:57.473Z,971.87
2018-01-17T01:43:57.612Z,971.93
2018-01-17T01:44:57.454Z,971.86
2018-01-17T01:45:57.450Z,971.88
2018-01-17T01:46:57.439Z,971.85
2018-01-17T01:47:57.431Z,971.89
2018-01-17T01:48:57.425Z,971.89
2018-01-17T01:49:57.419Z,971.84
2018-01-17T01:50:57.409Z,971.78
2018-01-17T01:51:57.402Z,971.76
2018-01-17T01:52:57.402Z,971.74
2018-01-17T01:53:57.387Z,971.65
2018-01-17T01:54:57.381Z,971.73
2018-01-17T01:55:57.373Z,971.74
2018-01-17T01:56:57.368Z,971.82
2018-01-17T01:57:57.397Z,971.83
2018-01-17T01:58:57.350Z,971.81
2018-01-17T01:59:57.346Z,971.76
2018-01-17T02:00:57.336Z,971.69
2018-01-17T02:01:57.330Z,971.66
2018-01-17T02:02:57.321Z,971.63
2018-01-17T02:03:57.311Z,971.64
2018-01-17T02:04:57.306Z,971.66
2018-01-17T02:05:57.304Z,971.63
2018-01-17T02:06:57.288Z,971.63
2018-01-17T02:07:57.292Z,971.64
2018-01-17T02:08:57.275Z,971.67
2018-01-17T02:09:57.267Z,971.66
2018-01-17T02:10:57.259Z,971.73
2018-01-17T02:11:57.299Z,971.73
2018-01-17T02:12:57.246Z,971.73
2018-01-17T02:13:57.385Z,971.73
2018-01-17T02:14:57.231Z,971.71
2018-01-17T02:15:57.221Z,971.73
2018-01-17T02:16:57.214Z,971.73
2018-01-17T02:17:57.209Z,971.72
2018-01-17T02:18:57.187Z,971.69
2018-01-17T02:19:57.180Z,971.67
2018-01-17T02:20:57.172Z,971.72
2018-01-17T02:21:57.164Z,971.75
2018-01-17T02:22:57.161Z,971.67
2018-01-17T02:23:57.148Z,971.62
2018-01-17T02:24:57.142Z,971.71
2018-01-17T02:25:57.134Z,971.65
2018-01-17T02:26:57.130Z,971.69
2018-01-17T02:27:57.118Z,971.76
2018-01-17T02:28:57.113Z,971.69
2018-01-17T02:29:57.107Z,971.73
2018-01-17T02:30:57.112Z,971.69
2018-01-17T02:31:57.088Z,971.69
2018-01-17T02:32:57.081Z,971.65
2018-01-17T02:33:57.073Z,971.61
2018-01-17T02:34:57.067Z,971.62
2018-01-17T02:35:57.060Z,971.6
2018-01-17T02:36:57.054Z,971.62
2018-01-17T02:37:57.044Z,971.66
2018-01-17T02:38:57.039Z,971.68
2018-01-17T02:39:57.027Z,971.63
2018-01-17T02:40:57.022Z,971.69
2018-01-17T02:41:57.013Z,971.69
2018-01-17T02:42:57.005Z,971.71
2018-01-17T02:43:57.000Z,971.76
2018-01-17T02:44:56.991Z,971.74
2018-01-17T02:45:56.991Z,971.72
2018-01-17T02:46:56.975Z,971.74
2018-01-17T02:47:56.969Z,971.74
2018-01-17T02:48:56.963Z,971.77
2018-01-17T02:49:56.952Z,971.71
2018-01-17T02:50:56.945Z,971.65
2018-01-17T02:51:56.939Z,971.61
2018-01-17T02:52:56.932Z,971.68
2018-01-17T02:53:56.921Z,971.61
2018-01-17T02:54:56.913Z,971.63
2018-01-17T02:55:56.913Z,971.63
2018-01-17T02:56:56.903Z,971.57
2018-01-17T02:57:56.893Z,971.59
2018-01-17T02:58:56.886Z,971.58
2018-01-17T02:59:56.875Z,971.57
2018-01-17T03:00:56.867Z,971.58
2018-01-17T03:01:56.859Z,971.55
2018-01-17T03:02:56.852Z,971.48
2018-01-17T03:03:56.842Z,971.49
2018-01-17T03:04:56.836Z,971.54
2018-01-17T03:05:56.833Z,971.51
2018-01-17T03:06:56.819Z,971.48
2018-01-17T03:07:56.811Z,971.5
2018-01-17T03:08:56.802Z,971.51
2018-01-17T03:09:56.796Z,971.48
2018-01-17T03:10:56.790Z,971.54
2018-01-17T03:11:56.779Z,971.55
2018-01-17T03:12:56.773Z,971.58
2018-01-17T03:13:56.765Z,971.55
2018-01-17T03:14:56.755Z,971.55
2018-01-17T03:15:56.748Z,971.57
2018-01-17T03:16:56.740Z,971.53
2018-01-17T03:17:56.733Z,971.5
2018-01-17T03:18:56.723Z,971.53
2018-01-17T03:19:56.717Z,971.54
2018-01-17T03:20:56.708Z,971.54
2018-01-17T03:21:56.700Z,971.55
2018-01-17T03:22:56.692Z,971.6
2018-01-17T03:23:56.683Z,971.59
2018-01-17T03:24:56.677Z,971.64
2018-01-17T03:25:56.671Z,971.57
2018-01-17T03:26:56.661Z,971.55
2018-01-17T03:27:56.651Z,971.53
2018-01-17T03:28:56.643Z,971.52
2018-01-17T03:29:56.634Z,971.54
2018-01-17T03:30:56.627Z,971.59
2018-01-17T03:31:56.618Z,971.6
2018-01-17T03:32:56.612Z,971.66
2018-01-17T03:33:56.603Z,971.65
2018-01-17T03:34:56.595Z,971.64
2018-01-17T03:35:56.586Z,971.69
2018-01-17T03:36:56.578Z,971.68
2018-01-17T03:37:56.570Z,971.68
2018-01-17T03:38:56.562Z,971.71
2018-01-17T03:39:56.558Z,971.75
2018-01-17T03:40:56.547Z,971.7
2018-01-17T03:41:56.545Z,971.72
2018-01-17T03:42:56.530Z,971.81
2018-01-17T03:43:56.520Z,971.81
2018-01-17T03:44:56.513Z,971.77
2018-01-17T03:45:56.510Z,971.82
2018-01-17T03:46:56.499Z,971.82
2018-01-17T03:47:56.498Z,971.75
2018-01-17T03:48:56.484Z,971.71
2018-01-17T03:49:56.472Z,971.66
2018-01-17T03:50:56.465Z,971.65
2018-01-17T03:51:56.456Z,971.73
2018-01-17T03:52:56.450Z,971.66
2018-01-17T03:53:56.481Z,971.73
2018-01-17T03:54:56.433Z,971.72
2018-01-17T03:55:56.426Z,971.61
2018-01-17T03:56:56.416Z,971.6
2018-01-17T03:57:56.411Z,971.62
2018-01-17T03:58:56.419Z,971.63
2018-01-17T03:59:56.393Z,971.55
2018-01-17T04:00:56.387Z,971.58
2018-01-17T04:01:56.377Z,971.62
2018-01-17T04:02:56.370Z,971.59
2018-01-17T04:03:56.360Z,971.52
2018-01-17T04:04:56.404Z,971.45
2018-01-17T04:05:56.352Z,971.52
2018-01-17T04:06:56.336Z,971.49
2018-01-17T04:07:56.328Z,971.52
2018-01-17T04:08:56.320Z,971.51
2018-01-17T04:09:56.311Z,971.48
2018-01-17T04:10:56.305Z,971.52
2018-01-17T04:11:56.305Z,971.56
2018-01-17T04:12:56.288Z,971.55
2018-01-17T04:13:56.279Z,971.67
2018-01-17T04:14:56.271Z,971.68
2018-01-17T04:15:56.264Z,971.75
2018-01-17T04:16:56.254Z,971.81
2018-01-17T04:17:56.248Z,971.86
2018-01-17T04:18:56.240Z,971.83
2018-01-17T04:19:56.232Z,971.9
2018-01-17T04:20:56.221Z,971.91
2018-01-17T04:21:56.215Z,971.99
2018-01-17T04:22:56.207Z,972.14
2018-01-17T04:23:56.199Z,972.12
2018-01-17T04:24:56.189Z,972.03
2018-01-17T04:25:56.182Z,972.04
2018-01-17T04:26:56.172Z,972.23
2018-01-17T04:27:56.165Z,972.28
2018-01-17T04:28:56.155Z,972.5
2018-01-17T04:29:56.147Z,972.19
2018-01-17T04:30:56.138Z,972.24
2018-01-17T04:31:56.129Z,972.31
2018-01-17T04:32:56.122Z,972.39
2018-01-17T04:33:56.111Z,972.43
2018-01-17T04:34:56.102Z,972.35
2018-01-17T04:35:56.094Z,972.49
2018-01-17T04:36:56.085Z,972.49
2018-01-17T04:37:56.075Z,972.54
2018-01-17T04:38:56.066Z,972.69
2018-01-17T04:39:56.057Z,972.62
2018-01-17T04:40:56.047Z,972.55
2018-01-17T04:41:56.038Z,972.63
2018-01-17T04:42:56.030Z,972.63
2018-01-17T04:43:56.021Z,972.69
2018-01-17T04:44:56.026Z,972.84
2018-01-17T04:45:56.004Z,972.74
2018-01-17T04:46:55.991Z,972.89
2018-01-17T04:47:55.984Z,972.92
2018-01-17T04:48:55.974Z,972.88
2018-01-17T04:49:55.963Z,972.86
2018-01-17T04:50:55.955Z,972.87
2018-01-17T04:51:55.946Z,972.8
2018-01-17T04:52:55.935Z,972.76
2018-01-17T04:53:55.929Z,972.74
2018-01-17T04:54:55.918Z,972.76
2018-01-17T04:55:55.912Z,972.8
2018-01-17T04:56:55.902Z,972.89
2018-01-17T04:57:55.896Z,972.92
2018-01-17T04:58:55.884Z,972.91
2018-01-17T04:59:55.872Z,973.04
2018-01-17T05:00:55.863Z,972.88
2018-01-17T05:01:55.856Z,972.95
2018-01-17T05:02:55.877Z,973.08
2018-01-17T05:03:55.836Z,973.12
2018-01-17T05:04:55.826Z,972.97
2018-01-17T05:05:55.817Z,973.01
2018-01-17T05:06:55.815Z,973.02
2018-01-17T05:07:55.806Z,973.08
2018-01-17T05:08:55.792Z,973.13
2018-01-17T05:09:55.780Z,973.1
2018-01-17T05:10:55.774Z,973.07
2018-01-17T05:11:55.772Z,973.04
2018-01-17T05:12:55.752Z,973.03
2018-01-17T05:13:55.745Z,973.07
2018-01-17T05:14:55.740Z,973.06
2018-01-17T05:15:55.736Z,973.1
2018-01-17T05:16:55.718Z,973.24
2018-01-17T05:17:55.708Z,973.32
2018-01-17T05:18:55.699Z,973.24
2018-01-17T05:19:55.690Z,973.27
2018-01-17T05:20:55.681Z,973.32
2018-01-17T05:21:55.682Z,973.28
2018-01-17T05:22:55.662Z,973.22
2018-01-17T05:23:55.653Z,973.35
2018-01-17T05:24:55.643Z,973.32
2018-01-17T05:25:55.637Z,973.24
2018-01-17T05:26:55.632Z,973.37
2018-01-17T05:27:55.617Z,973.32
2018-01-17T05:28:55.613Z,973.37
2018-01-17T05:29:55.599Z,973.45
2018-01-17T05:30:55.590Z,973.4
2018-01-17T05:31:55.581Z,973.39
2018-01-17T05:32:55.572Z,973.4
2018-01-17T05:33:55.561Z,973.43
2018-01-17T05:34:55.551Z,973.39
2018-01-17T05:35:55.543Z,973.15
2018-01-17T05:36:55.534Z,973.34
2018-01-17T05:37:55.526Z,973.28
2018-01-17T05:38:55.517Z,973.32
2018-01-17T05:39:55.506Z,973.34
2018-01-17T05:40:55.496Z,973.34
2018-01-17T05:41:55.487Z,973.43
2018-01-17T05:42:55.479Z,973.39
2018-01-17T05:43:55.472Z,973.39
2018-01-17T05:44:55.460Z,973.42
2018-01-17T05:45:55.451Z,973.53
2018-01-17T05:46:55.442Z,973.5
2018-01-17T05:47:55.432Z,973.52
2018-01-17T05:48:55.431Z,973.5
2018-01-17T05:49:55.431Z,973.58
2018-01-17T05:50:55.403Z,973.54
2018-01-17T05:51:55.396Z,973.6
2018-01-17T05:52:55.387Z,973.58
2018-01-17T05:53:55.378Z,973.55
2018-01-17T05:54:55.374Z,973.6
2018-01-17T05:55:55.373Z,973.54
2018-01-17T05:56:55.349Z,973.54
2018-01-17T05:57:55.340Z,973.51
2018-01-17T05:58:55.335Z,973.57
2018-01-17T05:59:55.330Z,973.59
2018-01-17T06:00:55.315Z,973.64
2018-01-17T06:01:55.302Z,973.56
2018-01-17T06:02:55.292Z,973.54
2018-01-17T06:03:55.283Z,973.67
2018-01-17T06:04:55.276Z,973.68
2018-01-17T06:05:55.268Z,973.62
2018-01-17T06:06:55.255Z,973.67
2018-01-17T06:07:55.246Z,973.73
2018-01-17T06:08:55.239Z,973.72
2018-01-17T06:09:55.227Z,973.8
2018-01-17T06:10:55.218Z,973.64
2018-01-17T06:11:55.209Z,973.74
2018-01-17T06:12:55.199Z,973.76
2018-01-17T06:13:55.188Z,973.77
2018-01-17T06:14:55.179Z,973.81
2018-01-17T06:15:55.172Z,973.84
2018-01-17T06:16:55.161Z,973.82
2018-01-17T06:17:55.151Z,973.77
2018-01-17T06:18:55.148Z,973.68
2018-01-17T06:19:55.138Z,973.7
2018-01-17T06:20:55.125Z,973.75
2018-01-17T06:21:55.121Z,973.65
2018-01-17T06:22:55.105Z,973.71
2018-01-17T06:23:55.096Z,973.64
2018-01-17T06:24:55.088Z,973.69
2018-01-17T06:25:55.089Z,973.81
2018-01-17T06:26:55.076Z,973.79
2018-01-17T06:27:55.075Z,973.81
2018-01-17T06:28:55.046Z,973.86
2018-01-17T06:29:55.039Z,973.87
2018-01-17T06:30:55.034Z,973.86
2018-01-17T06:31:55.030Z,973.9
2018-01-17T06:32:55.033Z,973.93
2018-01-17T06:33:54.999Z,973.85
2018-01-17T06:34:54.988Z,974.02
2018-01-17T06:35:54.980Z,973.99
2018-01-17T06:36:54.969Z,973.98
2018-01-17T06:37:54.960Z,974.16
2018-01-17T06:38:54.951Z,974.11
2018-01-17T06:39:54.943Z,974.25
2018-01-17T06:40:54.932Z,974.39
2018-01-17T06:41:54.923Z,974.28
2018-01-17T06:42:54.913Z,974.36
2018-01-17T06:43:54.905Z,974.39
2018-01-17T06:44:54.901Z,974.34
2018-01-17T06:45:54.884Z,974.36
2018-01-17T06:46:54.874Z,974.51
2018-01-17T06:47:54.866Z,974.39
2018-01-17T06:48:54.855Z,974.49
2018-01-17T06:49:54.846Z,974.47
2018-01-17T06:50:54.837Z,974.5
2018-01-17T06:51:54.826Z,974.5
2018-01-17T06:52:54.816Z,974.58
2018-01-17T06:53:54.807Z,974.59
2018-01-17T06:54:54.804Z,974.64
2018-01-17T06:55:54.788Z,974.65
2018-01-17T06:56:54.779Z,974.52
2018-01-17T06:57:54.768Z,974.69
2018-01-17T06:58:54.759Z,974.74
2018-01-17T06:59:54.750Z,974.72
2018-01-17T07:00:54.741Z,974.8
2018-01-17T07:01:54.748Z,974.83
2018-01-17T07:02:54.721Z,974.89
2018-01-17T07:03:54.715Z,974.94
2018-01-17T07:04:54.706Z,974.98
2018-01-17T07:05:54.693Z,974.95
2018-01-17T07:06:54.687Z,974.92
2018-01-17T07:07:54.675Z,975.05
2018-01-17T07:08:54.667Z,975.12
2018-01-17T07:09:54.656Z,975.39
2018-01-17T07:10:54.654Z,975.19
2018-01-17T07:11:54.653Z,975.27
2018-01-17T07:12:54.629Z,975.32
2018-01-17T07:13:54.620Z,975.45
2018-01-17T07:14:54.619Z,975.37
2018-01-17T07:15:54.612Z,975.29
2018-01-17T07:16:54.594Z,975.35
2018-01-17T07:17:54.582Z,975.47
2018-01-17T07:18:54.590Z,975.42
2018-01-17T07:19:54.565Z,975.5
2018-01-17T07:20:54.551Z,975.52
2018-01-17T07:21:54.551Z,975.65
2018-01-17T07:22:54.532Z,975.61
2018-01-17T07:23:54.521Z,975.67
2018-01-17T07:24:54.513Z,975.64
2018-01-17T07:25:54.502Z,975.86
2018-01-17T07:26:54.493Z,975.77
2018-01-17T07:27:54.486Z,975.59
2018-01-17T07:28:54.485Z,975.82
2018-01-17T07:29:54.465Z,975.87
2018-01-17T07:30:54.453Z,975.88
2018-01-17T07:31:54.443Z,975.81
2018-01-17T07:32:54.434Z,975.79
2018-01-17T07:33:54.425Z,975.99
2018-01-17T07:34:54.414Z,975.98
2018-01-17T07:35:54.404Z,975.97
2018-01-17T07:36:54.393Z,975.9
2018-01-17T07:37:54.383Z,976.05
2018-01-17T07:38:54.375Z,975.99
2018-01-17T07:39:54.365Z,976.09
2018-01-17T07:40:54.357Z,975.97
2018-01-17T07:41:54.343Z,976.01
2018-01-17T07:42:54.334Z,975.96
2018-01-17T07:43:54.328Z,975.94
2018-01-17T07:44:54.325Z,975.99
2018-01-17T07:45:54.306Z,976.06
2018-01-17T07:46:54.294Z,976.11
2018-01-17T07:47:54.290Z,976.12
2018-01-17T07:48:54.276Z,976.25
2018-01-17T07:49:54.267Z,976.29
2018-01-17T07:50:54.265Z,976.4
2018-01-17T07:51:54.246Z,976.27
2018-01-17T07:52:54.235Z,976.43
2018-01-17T07:53:54.250Z,976.43
2018-01-17T07:54:54.216Z,976.76
2018-01-17T07:55:54.207Z,976.43
2018-01-17T07:56:54.196Z,976.49
2018-01-17T07:57:54.186Z,976.44
2018-01-17T07:58:54.179Z,976.6
2018-01-17T07:59:54.165Z,976.47
2018-01-17T08:00:54.157Z,976.6
2018-01-17T08:01:54.145Z,976.5
2018-01-17T08:02:54.142Z,976.61
2018-01-17T08:03:54.126Z,976.58
2018-01-17T08:04:54.118Z,976.56
2018-01-17T08:05:54.110Z,976.65
2018-01-17T08:06:54.099Z,976.69
2018-01-17T08:07:54.088Z,976.66
2018-01-17T08:08:54.078Z,976.56
2018-01-17T08:09:54.070Z,976.64
2018-01-17T08:10:54.059Z,976.62
2018-01-17T08:11:54.051Z,976.64
2018-01-17T08:12:54.041Z,976.54
2018-01-17T08:13:54.034Z,976.71
2018-01-17T08:14:54.022Z,976.77
2018-01-17T08:15:54.016Z,976.79
2018-01-17T08:16:54.158Z,976.88
2018-01-17T08:17:53.999Z,976.74
2018-01-17T08:18:53.990Z,976.87
2018-01-17T08:19:53.976Z,976.87
2018-01-17T08:20:53.967Z,976.99
2018-01-17T08:21:53.957Z,976.91
2018-01-17T08:22:53.952Z,976.88
2018-01-17T08:23:53.948Z,977.09
2018-01-17T08:24:53.934Z,977.05
2018-01-17T08:25:53.920Z,977.11
2018-01-17T08:26:53.916Z,977.14
2018-01-17T08:27:53.903Z,977.13
2018-01-17T08:28:53.895Z,977.15
2018-01-17T08:29:53.886Z,977.32
2018-01-17T08:30:53.875Z,977.27
2018-01-17T08:31:53.867Z,977.36
2018-01-17T08:32:53.856Z,977.35
2018-01-17T08:33:53.857Z,977.3
2018-01-17T08:34:53.842Z,977.39
2018-01-17T08:35:53.843Z,977.3
2018-01-17T08:36:53.821Z,977.37
2018-01-17T08:37:53.813Z,977.44
2018-01-17T08:38:53.809Z,977.41
2018-01-17T08:39:53.796Z,977.44
2018-01-17T08:40:53.787Z,977.42
2018-01-17T08:41:53.792Z,977.56
2018-01-17T08:42:53.771Z,977.46
2018-01-17T08:43:53.762Z,977.43
2018-01-17T08:44:53.757Z,977.26
2018-01-17T08:45:53.744Z,977.56
2018-01-17T08:46:53.735Z,977.6
2018-01-17T08:47:53.729Z,977.53
2018-01-17T08:48:53.718Z,977.76
2018-01-17T08:49:53.710Z,977.73
2018-01-17T08:50:53.701Z,977.64
2018-01-17T08:51:53.691Z,977.66
2018-01-17T08:52:53.683Z,977.62
2018-01-17T08:53:53.676Z,977.69
2018-01-17T08:54:53.664Z,977.74
2018-01-17T08:55:53.659Z,977.72
2018-01-17T08:56:53.651Z,977.78
2018-01-17T08:57:53.641Z,977.84
2018-01-17T08:58:53.633Z,977.98
2018-01-17T08:59:53.626Z,977.8
2018-01-17T09:00:53.616Z,977.81
2018-01-17T09:01:53.608Z,977.86
2018-01-17T09:02:53.603Z,977.86
2018-01-17T09:03:53.592Z,977.87
2018-01-17T09:04:53.584Z,977.87
2018-01-17T09:05:53.574Z,977.94
2018-01-17T09:06:53.566Z,978.01
2018-01-17T09:07:53.561Z,978.02
2018-01-17T09:08:53.550Z,978.02
2018-01-17T09:09:53.547Z,978.05
2018-01-17T09:10:53.532Z,978.19
2018-01-17T09:11:53.542Z,978.1
2018-01-17T09:12:53.515Z,978.18
2018-01-17T09:13:53.508Z,978.24
2018-01-17T09:14:53.498Z,978.13
2018-01-17T09:15:53.491Z,978.25
2018-01-17T09:16:53.489Z,978.2
2018-01-17T09:17:53.473Z,978.25
2018-01-17T09:18:53.464Z,978.27
2018-01-17T09:19:53.456Z,978.21
2018-01-17T09:20:53.447Z,978.33
2018-01-17T09:21:53.438Z,978.35
2018-01-17T09:22:53.430Z,978.4
2018-01-17T09:23:53.429Z,978.31
2018-01-17T09:24:53.414Z,978.28
2018-01-17T09:25:53.404Z,978.29
2018-01-17T09:26:53.397Z,978.33
2018-01-17T09:27:53.387Z,978.31
2018-01-17T09:28:53.380Z,978.51
2018-01-17T09:29:53.370Z,978.49
2018-01-17T09:30:53.367Z,978.6
2018-01-17T09:31:53.352Z,978.61
2018-01-17T09:32:53.343Z,978.58
2018-01-17T09:33:53.336Z,978.43
2018-01-17T09:34:53.327Z,978.67
2018-01-17T09:35:53.317Z,978.66
2018-01-17T09:36:53.309Z,978.78
2018-01-17T09:37:53.298Z,978.76
2018-01-17T09:38:53.291Z,978.98
2018-01-17T09:39:53.280Z,979.05
2018-01-17T09:40:53.270Z,979.05
2018-01-17T09:41:53.261Z,979.1
2018-01-17T09:42:53.255Z,979.22
2018-01-17T09:43:53.242Z,979.29
2018-01-17T09:44:53.235Z,979.26
2018-01-17T09:45:53.222Z,979.29
2018-01-17T09:46:53.215Z,979.22
2018-01-17T09:47:53.203Z,979.09
2018-01-17T09:48:53.193Z,979.14
2018-01-17T09:49:53.183Z,979.03
2018-01-17T09:50:53.173Z,978.94
2018-01-17T09:51:53.163Z,978.87
2018-01-17T09:52:53.153Z,978.62
2018-01-17T09:53:53.144Z,978.72
2018-01-17T09:54:53.132Z,978.86
2018-01-17T09:55:53.123Z,978.79
2018-01-17T09:56:53.113Z,978.89
2018-01-17T09:57:53.102Z,978.89
2018-01-17T09:58:53.093Z,978.89
2018-01-17T09:59:53.087Z,978.94
2018-01-17T10:00:53.078Z,978.98
2018-01-17T10:01:53.069Z,978.99
2018-01-17T10:02:53.067Z,978.99
2018-01-17T10:03:53.070Z,979.01
2018-01-17T10:04:53.032Z,979.05
2018-01-17T10:05:53.022Z,979.04
2018-01-17T10:06:53.017Z,979.11
2018-01-17T10:07:53.813Z,979.08
2018-01-17T10:08:52.993Z,979.14
2018-01-17T10:09:52.990Z,979.22
2018-01-17T10:10:52.977Z,979.19
2018-01-17T10:11:52.969Z,979.24
2018-01-17T10:12:52.957Z,979.26
2018-01-17T10:13:52.960Z,979.28
2018-01-17T10:14:52.956Z,979.24
2018-01-17T10:15:52.929Z,979.3
2018-01-17T10:16:52.918Z,979.26
2018-01-17T10:17:52.912Z,979.29
2018-01-17T10:18:52.901Z,979.35
2018-01-17T10:19:52.898Z,979.34
2018-01-17T10:20:52.900Z,979.4
2018-01-17T10:21:52.894Z,979.39
2018-01-17T10:22:52.872Z,979.45
2018-01-17T10:53:12.737Z,980.08
2018-01-17T10:54:12.014Z,980.11
2018-01-17T10:55:12.466Z,980.07
2018-01-17T10:56:12.040Z,980.06
2018-01-17T10:57:11.974Z,980.18
2018-01-17T10:58:11.961Z,980.13
2018-01-17T10:59:11.951Z,980.1
2018-01-17T11:00:12.567Z,980.22
2018-01-17T11:01:11.929Z,980.23
2018-01-17T11:02:11.918Z,980.2
2018-01-17T11:03:11.907Z,980.24
2018-01-17T11:04:11.897Z,980.27
2018-01-17T11:05:12.566Z,980.19
2018-01-17T11:06:11.878Z,980.15
2018-01-17T11:07:11.868Z,980.3
2018-01-17T11:08:11.858Z,980.25
2018-01-17T11:09:11.848Z,980.26
2018-01-17T11:10:12.545Z,980.24
2018-01-17T11:11:11.836Z,980.37
2018-01-17T11:12:11.822Z,980.29
2018-01-17T11:13:11.813Z,980.28
2018-01-17T11:14:11.824Z,980.3
2018-01-17T11:15:12.411Z,980.41
2018-01-17T11:16:11.785Z,980.43
2018-01-17T11:17:11.776Z,980.51
2018-01-17T11:18:11.766Z,980.5
2018-01-17T11:19:11.758Z,980.5
2018-01-17T11:20:12.719Z,980.51
2018-01-17T11:21:11.741Z,980.55
2018-01-17T11:22:11.733Z,980.54
2018-01-17T11:23:11.723Z,980.57
2018-01-17T11:24:11.714Z,980.5
2018-01-17T11:25:12.370Z,980.55
2018-01-17T11:26:11.697Z,980.58
2018-01-17T11:27:11.690Z,980.57
2018-01-17T11:28:11.681Z,980.58
2018-01-17T11:29:11.672Z,980.66
2018-01-17T11:30:12.133Z,980.66
2018-01-17T11:31:11.656Z,980.67
2018-01-17T11:32:11.650Z,980.67
2018-01-17T11:33:11.641Z,980.61
2018-01-17T11:34:11.638Z,980.73
2018-01-17T11:35:12.256Z,980.63
2018-01-17T11:36:11.619Z,980.8
2018-01-17T11:37:11.610Z,980.71
2018-01-17T11:38:11.602Z,980.71
2018-01-17T11:39:11.591Z,980.81
2018-01-17T11:40:12.135Z,980.79
2018-01-17T11:41:11.580Z,980.78
2018-01-17T11:42:11.565Z,980.76
2018-01-17T11:43:11.559Z,980.79
2018-01-17T11:44:11.560Z,980.77
2018-01-17T11:45:12.132Z,980.81
2018-01-17T11:46:11.533Z,980.78
2018-01-17T11:47:11.527Z,980.96
2018-01-17T11:48:11.518Z,980.52
2018-01-17T11:49:11.510Z,980.56
2018-01-17T11:50:12.222Z,980.83
2018-01-17T11:51:11.489Z,980.94
2018-01-17T11:52:11.480Z,980.79
2018-01-17T11:53:11.472Z,980.92
2018-01-17T11:54:11.465Z,980.77
2018-01-17T11:55:11.873Z,980.77
2018-01-17T11:56:11.445Z,980.85
2018-01-17T11:57:11.437Z,980.83
2018-01-17T11:58:11.428Z,980.8
2018-01-17T11:59:11.419Z,980.83
2018-01-17T12:00:11.748Z,980.88
2018-01-17T12:01:11.405Z,980.92
2018-01-17T12:02:11.397Z,981.07
2018-01-17T12:03:11.387Z,981.09
2018-01-17T12:04:11.376Z,981.15
2018-01-17T12:05:11.858Z,981.06
2018-01-17T12:06:11.362Z,981.07
2018-01-17T12:07:11.357Z,981.01
2018-01-17T12:08:11.345Z,981.15
2018-01-17T12:09:11.335Z,981.13
2018-01-17T12:10:11.941Z,981.07
2018-01-17T12:11:11.321Z,981.13
2018-01-17T12:12:11.315Z,981.17
2018-01-17T12:13:11.307Z,981.24
2018-01-17T12:14:11.599Z,981.11
2018-01-17T12:15:11.856Z,981.27
2018-01-17T12:16:11.281Z,981.24
2018-01-17T12:17:11.272Z,981.39
2018-01-17T12:18:11.263Z,981.18
2018-01-17T12:19:11.557Z,981.21
2018-01-17T12:20:11.927Z,981.33
2018-01-17T12:21:11.241Z,981.24
2018-01-17T12:22:11.233Z,981.38
2018-01-17T12:23:11.225Z,981.13
2018-01-17T12:24:11.916Z,981.32
2018-01-17T12:25:11.393Z,981.2
2018-01-17T12:26:11.202Z,981.35
2018-01-17T12:27:11.193Z,981.33
2018-01-17T12:28:11.184Z,981.34
2018-01-17T12:29:11.575Z,981.19
2018-01-17T12:30:11.373Z,981.33
2018-01-17T12:31:11.202Z,981.24
2018-01-17T12:32:11.158Z,981.38
2018-01-17T12:33:11.169Z,981.27
2018-01-17T12:34:11.836Z,981.41
2018-01-17T12:35:11.524Z,981.36
2018-01-17T12:36:11.127Z,981.22
2018-01-17T12:37:11.111Z,981.24
2018-01-17T12:38:11.100Z,981.32
2018-01-17T12:39:12.300Z,981.35
2018-01-17T12:40:11.682Z,981.38
2018-01-17T12:41:11.129Z,981.38
2018-01-17T12:42:11.070Z,981.39
2018-01-17T12:43:11.072Z,981.34
2018-01-17T12:44:11.055Z,981.44
2018-01-17T12:45:11.654Z,981.33
2018-01-17T12:46:11.033Z,981.39
2018-01-17T12:47:11.027Z,981.47
2018-01-17T12:48:11.017Z,981.42
2018-01-17T12:49:11.007Z,981.45
2018-01-17T12:50:11.359Z,981.37
2018-01-17T12:51:10.991Z,981.48
2018-01-17T12:52:10.989Z,981.42
2018-01-17T12:53:11.007Z,981.55
2018-01-17T12:54:10.988Z,981.54
2018-01-17T12:55:11.382Z,981.65
2018-01-17T12:56:10.948Z,981.57
2018-01-17T12:57:10.940Z,981.75
2018-01-17T12:58:10.932Z,981.67
2018-01-17T12:59:10.924Z,981.61
2018-01-17T13:00:11.515Z,981.71